This is the latest recevied weather packets stored in our database for station/object Huerbel. If no packets are shown the sender has not sent any weather packets the latest 10 day(s).
| Time | Temp. | Humidity | Pressure | Rain* | Wind** | Luminosity | Snow |
|---|---|---|---|---|---|---|---|
| 1777033930 | 19.44° C | 27% | 1021.7 hPa | 0 mm | - | - | - |
| 1777032130 | 19.44° C | 33% | 1022.1 hPa | 0 mm | - | - | - |
| 1777030332 | 18.33° C | 29% | 1022.2 hPa | 0 mm | - | - | - |
| 1777028532 | 17.22° C | 28% | 1022.8 hPa | 0 mm | - | - | - |
| 1777026733 | 17.22° C | 34% | 1022.8 hPa | 0 mm | - | - | - |
| 1777024930 | 16.67° C | 31% | 1022.9 hPa | 0 mm | - | - | - |
| 1777023130 | 15.56° C | 34% | 1023.2 hPa | 0 mm | - | - | - |
| 1777021336 | 15° C | 38% | 1023.5 hPa | 0 mm | - | - | - |
| 1777019531 | 13.89° C | 42% | 1023.6 hPa | 0 mm | - | - | - |
| 1777017732 | 12.78° C | 43% | 1023.9 hPa | 0 mm | - | - | - |
| 1777015932 | 10.56° C | 59% | 1023.9 hPa | 0 mm | - | - | - |
| 1777014133 | 5.56° C | 76% | 1024.1 hPa | 0 mm | - | - | - |
| 1777012337 | 2.22° C | 85% | 1024.2 hPa | 0 mm | - | - | - |
| 1777010530 | 0° C | 86% | 1023.9 hPa | 0 mm | - | - | - |
| 1777008731 | -1.11° C | 84% | 1024 hPa | 0 mm | - | - | - |
| 1777006932 | -1.11° C | 83% | 1024 hPa | 0 mm | - | - | - |
| 1777005132 | -1.11° C | 82% | 1024 hPa | 0 mm | - | - | - |
| 1777003331 | -0.56° C | 82% | 1024.1 hPa | 0 mm | - | - | - |
| 1777001531 | -0.56° C | 82% | 1024.2 hPa | 0 mm | - | - | - |
| 1776999731 | -0.56° C | 81% | 1024.5 hPa | 0 mm | - | - | - |
| 1776997931 | 0° C | 81% | 1024.5 hPa | 0 mm | - | - | - |
| 1776996131 | 0° C | 81% | 1024.6 hPa | 0 mm | - | - | - |
* Rain since midnight (hover to see other rain measurements)
** Current wind speed in m/s (hover to see current wind gust speed)